WXM80 ListenWXM80 Stop

You find our weather info also at:

UK Metoffice

WeatherCloud

Weather Underground

Northeastern Weather Network

AWEKAS

Citizen Weather Observer Program (CWOP)

HAMweather, WeatherForYou, PWS Weather


Weather Underground History page Text

Daily Summary for June 8, 2017 Units:  Both    English   Metric
« Previous Day
Next Day »
Daily Weekly Monthly Yearly Custom
  High: Low: Average:
Temperature: 69.6 °F /  20.9 °C 50.0 °F /  10 °C 59.8 °F /  15.4 °C
Dew Point: 61.1 °F /  16.2 °C 46.1 °F /  7.8 °C 53.2 °F /  11.8 °C
Humidity: 97 % 60 % 80 %
Wind Speed: 5.4 mph /  8.7 km/h - 0.7 mph /  1.1 km/h
Wind Gust: 8.1 mph /  13 km/h - -
Wind:- - East
Pressure: 30.00 in /  1015.8 hPa 29.77 in /  1008 hPa -
Precipitation: 0.00 in /  0 mm    
Historical Graphs
 
 
Tabular Data for June 8, 2017
Time Temperature Dew Point Pressure Wind Wind Speed Wind Gust Humidity Rainfall Rate (Hourly)
00:04 55.9 °F /  13.3 °C 51.1 °F /  10.6 °C 29.99 in /  1015.5 hPa Calm     84 % 0.00 in /  0 mm
00:09 55.9 °F /  13.3 °C 51.1 °F /  10.6 °C 29.99 in /  1015.5 hPa Calm     84 % 0.00 in /  0 mm
00:14 55.9 °F /  13.3 °C 51.1 °F /  10.6 °C 29.99 in /  1015.5 hPa Calm     84 % 0.00 in /  0 mm
00:19 55.9 °F /  13.3 °C 51.1 °F /  10.6 °C 29.98 in /  1015.1 hPa Calm   1.0 mph /  1.6 km/h 84 % 0.00 in /  0 mm
00:24 55.9 °F /  13.3 °C 51.5 °F /  10.8 °C 29.98 in /  1015.1 hPa WSW 0.3 mph /  0.5 km/h 3.5 mph /  5.6 km/h 85 % 0.00 in /  0 mm
00:29 55.9 °F /  13.3 °C 51.5 °F /  10.8 °C 29.98 in /  1015.1 hPa WSW 0.2 mph /  0.3 km/h 1.2 mph /  1.9 km/h 85 % 0.00 in /  0 mm
00:34 55.9 °F /  13.3 °C 51.5 °F /  10.8 °C 29.98 in /  1015.1 hPa Calm     85 % 0.00 in /  0 mm
00:39 55.9 °F /  13.3 °C 51.8 °F /  11 °C 29.98 in /  1015.1 hPa WSW 0.2 mph /  0.3 km/h 1.2 mph /  1.9 km/h 86 % 0.00 in /  0 mm
00:45 55.9 °F /  13.3 °C 51.8 °F /  11 °C 29.98 in /  1015.1 hPa WSW 0.1 mph /  0.2 km/h 1.2 mph /  1.9 km/h 86 % 0.00 in /  0 mm
00:50 55.9 °F /  13.3 °C 51.5 °F /  10.8 °C 29.98 in /  1015.1 hPa WSW 0.1 mph /  0.2 km/h 1.2 mph /  1.9 km/h 85 % 0.00 in /  0 mm
00:55 55.9 °F /  13.3 °C 51.5 °F /  10.8 °C 29.98 in /  1015.1 hPa Calm   1.2 mph /  1.9 km/h 85 % 0.00 in /  0 mm
01:00 55.9 °F /  13.3 °C 51.8 °F /  11 °C 29.98 in /  1015.1 hPa Calm   1.2 mph /  1.9 km/h 86 % 0.00 in /  0 mm
01:05 55.8 °F /  13.2 °C 51.7 °F /  10.9 °C 29.98 in /  1015.1 hPa WSW 0.1 mph /  0.2 km/h 1.2 mph /  1.9 km/h 86 % 0.00 in /  0 mm
01:10 55.8 °F /  13.2 °C 51.7 °F /  10.9 °C 29.97 in /  1014.8 hPa Calm   1.2 mph /  1.9 km/h 86 % 0.00 in /  0 mm
01:15 55.7 °F /  13.2 °C 51.6 °F /  10.9 °C 29.97 in /  1014.8 hPa Calm     86 % 0.00 in /  0 mm
01:20 55.6 °F /  13.1 °C 51.5 °F /  10.8 °C 29.97 in /  1014.8 hPa Calm     86 % 0.00 in /  0 mm
01:25 55.5 °F /  13.1 °C 51.4 °F /  10.8 °C 29.97 in /  1014.8 hPa Calm     86 % 0.00 in /  0 mm
01:30 55.4 °F /  13 °C 51.3 °F /  10.7 °C 29.97 in /  1014.8 hPa WSW 0.1 mph /  0.2 km/h 1.2 mph /  1.9 km/h 86 % 0.00 in /  0 mm
01:35 55.3 °F /  12.9 °C 51.2 °F /  10.7 °C 29.98 in /  1015.1 hPa WSW 0.2 mph /  0.3 km/h 1.2 mph /  1.9 km/h 86 % 0.00 in /  0 mm
01:40 55.2 °F /  12.9 °C 51.1 °F /  10.6 °C 29.98 in /  1015.1 hPa Calm     86 % 0.00 in /  0 mm
01:45 55.1 °F /  12.8 °C 51.0 °F /  10.6 °C 29.97 in /  1014.8 hPa WSW 0.2 mph /  0.3 km/h 1.2 mph /  1.9 km/h 86 % 0.00 in /  0 mm
01:50 55.0 °F /  12.8 °C 50.9 °F /  10.5 °C 29.97 in /  1014.8 hPa WSW 0.5 mph /  0.8 km/h 2.3 mph /  3.7 km/h 86 % 0.00 in /  0 mm
01:55 54.9 °F /  12.7 °C 51.1 °F /  10.6 °C 29.97 in /  1014.8 hPa Calm     87 % 0.00 in /  0 mm
02:00 54.8 °F /  12.7 °C 51.0 °F /  10.6 °C 29.97 in /  1014.8 hPa Calm     87 % 0.00 in /  0 mm
02:05 54.7 °F /  12.6 °C 50.9 °F /  10.5 °C 29.97 in /  1014.8 hPa Calm   1.2 mph /  1.9 km/h 87 % 0.00 in /  0 mm
02:10 54.6 °F /  12.6 °C 50.8 °F /  10.4 °C 29.97 in /  1014.8 hPa Calm     87 % 0.00 in /  0 mm
02:15 54.5 °F /  12.5 °C 50.7 °F /  10.4 °C 29.97 in /  1014.8 hPa Calm     87 % 0.00 in /  0 mm
02:20 54.4 °F /  12.4 °C 50.6 °F /  10.3 °C 29.97 in /  1014.8 hPa Calm     87 % 0.00 in /  0 mm
02:25 54.3 °F /  12.4 °C 50.8 °F /  10.4 °C 29.97 in /  1014.8 hPa Calm     88 % 0.00 in /  0 mm
02:30 54.2 °F /  12.3 °C 50.7 °F /  10.4 °C 29.97 in /  1014.8 hPa Calm     88 % 0.00 in /  0 mm
02:35 54.1 °F /  12.3 °C 50.6 °F /  10.3 °C 29.97 in /  1014.8 hPa Calm     88 % 0.00 in /  0 mm
02:40 53.9 °F /  12.2 °C 50.4 °F /  10.2 °C 29.97 in /  1014.8 hPa Calm     88 % 0.00 in /  0 mm
02:45 53.7 °F /  12.1 °C 50.2 °F /  10.1 °C 29.97 in /  1014.8 hPa Calm     88 % 0.00 in /  0 mm
02:50 53.6 °F /  12 °C 50.4 °F /  10.2 °C 29.98 in /  1015.1 hPa Calm     89 % 0.00 in /  0 mm
02:55 53.4 °F /  11.9 °C 50.2 °F /  10.1 °C 29.97 in /  1014.8 hPa Calm     89 % 0.00 in /  0 mm
03:00 53.3 °F /  11.8 °C 50.1 °F /  10.1 °C 29.98 in /  1015.1 hPa Calm     89 % 0.00 in /  0 mm
03:05 53.1 °F /  11.7 °C 49.9 °F /  9.9 °C 29.98 in /  1015.1 hPa Calm     89 % 0.00 in /  0 mm
03:11 53.0 °F /  11.7 °C 49.8 °F /  9.9 °C 29.98 in /  1015.1 hPa Calm     89 % 0.00 in /  0 mm
03:16 52.8 °F /  11.6 °C 49.9 °F /  9.9 °C 29.97 in /  1014.8 hPa Calm     90 % 0.00 in /  0 mm
03:21 52.7 °F /  11.5 °C 49.8 °F /  9.9 °C 29.98 in /  1015.1 hPa Calm     90 % 0.00 in /  0 mm
03:26 52.6 °F /  11.4 °C 49.7 °F /  9.8 °C 29.98 in /  1015.1 hPa Calm     90 % 0.00 in /  0 mm
03:31 52.4 °F /  11.3 °C 49.8 °F /  9.9 °C 29.97 in /  1014.8 hPa Calm     91 % 0.00 in /  0 mm
03:36 52.3 °F /  11.3 °C 49.8 °F /  9.9 °C 29.97 in /  1014.8 hPa Calm     91 % 0.00 in /  0 mm
03:41 52.2 °F /  11.2 °C 49.7 °F /  9.8 °C 29.97 in /  1014.8 hPa Calm     91 % 0.00 in /  0 mm
03:46 52.0 °F /  11.1 °C 49.2 °F /  9.6 °C 29.97 in /  1014.8 hPa Calm     90 % 0.00 in /  0 mm
03:51 51.9 °F /  11.1 °C 49.4 °F /  9.7 °C 29.97 in /  1014.8 hPa Calm     91 % 0.00 in /  0 mm
03:56 51.8 °F /  11 °C 49.3 °F /  9.6 °C 29.97 in /  1014.8 hPa Calm     91 % 0.00 in /  0 mm
04:01 51.7 °F /  10.9 °C 49.2 °F /  9.6 °C 29.97 in /  1014.8 hPa Calm     91 % 0.00 in /  0 mm
04:06 51.7 °F /  10.9 °C 49.2 °F /  9.6 °C 29.97 in /  1014.8 hPa Calm     91 % 0.00 in /  0 mm
04:11 51.5 °F /  10.8 °C 49.0 °F /  9.4 °C 29.97 in /  1014.8 hPa Calm     91 % 0.00 in /  0 mm
04:16 51.5 °F /  10.8 °C 49.0 °F /  9.4 °C 29.96 in /  1014.4 hPa WSW 0.5 mph /  0.8 km/h 1.2 mph /  1.9 km/h 91 % 0.00 in /  0 mm
04:21 51.4 °F /  10.8 °C 48.9 °F /  9.4 °C 29.96 in /  1014.4 hPa Calm     91 % 0.00 in /  0 mm
04:26 51.2 °F /  10.7 °C 48.7 °F /  9.3 °C 29.96 in /  1014.4 hPa Calm     91 % 0.00 in /  0 mm
04:31 51.2 °F /  10.7 °C 48.7 °F /  9.3 °C 29.96 in /  1014.4 hPa Calm     91 % 0.00 in /  0 mm
04:36 51.1 °F /  10.6 °C 48.6 °F /  9.2 °C 29.96 in /  1014.4 hPa Calm     91 % 0.00 in /  0 mm
04:41 51.0 °F /  10.6 °C 48.5 °F /  9.2 °C 29.96 in /  1014.4 hPa Calm     91 % 0.00 in /  0 mm
04:46 51.0 °F /  10.6 °C 48.8 °F /  9.3 °C 29.96 in /  1014.4 hPa Calm     92 % 0.00 in /  0 mm
04:51 50.9 °F /  10.5 °C 48.7 °F /  9.3 °C 29.97 in /  1014.8 hPa Calm     92 % 0.00 in /  0 mm
04:56 50.9 °F /  10.5 °C 48.7 °F /  9.3 °C 29.97 in /  1014.8 hPa Calm     92 % 0.00 in /  0 mm
05:01 50.8 °F /  10.4 °C 48.6 °F /  9.2 °C 29.97 in /  1014.8 hPa Calm     92 % 0.00 in /  0 mm
05:06 50.7 °F /  10.4 °C 48.5 °F /  9.2 °C 29.97 in /  1014.8 hPa Calm     92 % 0.00 in /  0 mm
05:11 50.6 °F /  10.3 °C 48.4 °F /  9.1 °C 29.97 in /  1014.8 hPa Calm     92 % 0.00 in /  0 mm
05:16 50.5 °F /  10.3 °C 48.3 °F /  9.1 °C 29.97 in /  1014.8 hPa Calm     92 % 0.00 in /  0 mm
05:21 50.4 °F /  10.2 °C 48.2 °F /  9 °C 29.97 in /  1014.8 hPa Calm     92 % 0.00 in /  0 mm
05:26 50.3 °F /  10.2 °C 48.1 °F /  8.9 °C 29.97 in /  1014.8 hPa Calm     92 % 0.00 in /  0 mm
05:31 50.2 °F /  10.1 °C 48.0 °F /  8.9 °C 29.97 in /  1014.8 hPa Calm     92 % 0.00 in /  0 mm
05:36 50.1 °F /  10.1 °C 47.9 °F /  8.8 °C 29.97 in /  1014.8 hPa Calm     92 % 0.00 in /  0 mm
05:41 50.1 °F /  10.1 °C 47.9 °F /  8.8 °C 29.97 in /  1014.8 hPa Calm     92 % 0.00 in /  0 mm
05:46 50.0 °F /  10 °C 47.8 °F /  8.8 °C 29.97 in /  1014.8 hPa Calm     92 % 0.00 in /  0 mm
05:51 50.0 °F /  10 °C 48.1 °F /  8.9 °C 29.98 in /  1015.1 hPa Calm     93 % 0.00 in /  0 mm
05:56 50.0 °F /  10 °C 48.1 °F /  8.9 °C 29.98 in /  1015.1 hPa Calm     93 % 0.00 in /  0 mm
06:01 50.1 °F /  10.1 °C 48.2 °F /  9 °C 29.98 in /  1015.1 hPa Calm     93 % 0.00 in /  0 mm
06:06 50.1 °F /  10.1 °C 48.2 °F /  9 °C 29.98 in /  1015.1 hPa Calm     93 % 0.00 in /  0 mm
06:09 50.2 °F /  10.1 °C 48.3 °F /  9.1 °C 29.98 in /  1015.1 hPa Calm     93 % 0.00 in /  0 mm
06:14 50.3 °F /  10.2 °C 48.6 °F /  9.2 °C 29.98 in /  1015.1 hPa Calm     94 % 0.00 in /  0 mm
06:19 50.5 °F /  10.3 °C 48.8 °F /  9.3 °C 29.98 in /  1015.1 hPa Calm     94 % 0.00 in /  0 mm
06:29 51.0 °F /  10.6 °C 49.6 °F /  9.8 °C 29.99 in /  1015.5 hPa Calm     95 % 0.00 in /  0 mm
06:34 51.2 °F /  10.7 °C 49.8 °F /  9.9 °C 29.99 in /  1015.5 hPa Calm     95 % 0.00 in /  0 mm
06:39 51.4 °F /  10.8 °C 50.0 °F /  10 °C 29.99 in /  1015.5 hPa Calm     95 % 0.00 in /  0 mm
06:44 51.8 °F /  11 °C 50.7 °F /  10.4 °C 29.99 in /  1015.5 hPa Calm     96 % 0.00 in /  0 mm
06:49 52.3 °F /  11.3 °C 51.2 °F /  10.7 °C 29.99 in /  1015.5 hPa Calm     96 % 0.00 in /  0 mm
06:54 53.2 °F /  11.8 °C 52.1 °F /  11.2 °C 29.99 in /  1015.5 hPa Calm     96 % 0.00 in /  0 mm
06:59 54.6 °F /  12.6 °C 53.8 °F /  12.1 °C 29.99 in /  1015.5 hPa Calm     97 % 0.00 in /  0 mm
07:04 55.3 °F /  12.9 °C 54.5 °F /  12.5 °C 29.99 in /  1015.5 hPa Calm     97 % 0.00 in /  0 mm
07:09 55.8 °F /  13.2 °C 55.0 °F /  12.8 °C 29.99 in /  1015.5 hPa Calm     97 % 0.00 in /  0 mm
07:14 56.6 °F /  13.7 °C 55.8 °F /  13.2 °C 29.99 in /  1015.5 hPa Calm     97 % 0.00 in /  0 mm
07:19 57.2 °F /  14 °C 56.4 °F /  13.6 °C 30.00 in /  1015.8 hPa SSE 0.4 mph /  0.6 km/h 2.0 mph /  3.2 km/h 97 % 0.00 in /  0 mm
07:24 57.6 °F /  14.2 °C 56.8 °F /  13.8 °C 30.00 in /  1015.8 hPa Calm     97 % 0.00 in /  0 mm
07:25 57.7 °F /  14.3 °C 56.9 °F /  13.8 °C 30.00 in /  1015.8 hPa Calm     97 % 0.00 in /  0 mm
07:30 58.1 °F /  14.5 °C 57.3 °F /  14.1 °C 30.00 in /  1015.8 hPa Calm   1.0 mph /  1.6 km/h 97 % 0.00 in /  0 mm
07:36 58.4 °F /  14.7 °C 57.5 °F /  14.2 °C 30.00 in /  1015.8 hPa Calm   1.0 mph /  1.6 km/h 97 % 0.00 in /  0 mm
07:41 58.6 °F /  14.8 °C 57.5 °F /  14.2 °C 30.00 in /  1015.8 hPa Calm   1.0 mph /  1.6 km/h 96 % 0.00 in /  0 mm
07:46 59.0 °F /  15 °C 57.9 °F /  14.4 °C 30.00 in /  1015.8 hPa Calm   2.0 mph /  3.2 km/h 96 % 0.00 in /  0 mm
07:51 59.4 °F /  15.2 °C 58.3 °F /  14.6 °C 30.00 in /  1015.8 hPa Calm   1.0 mph /  1.6 km/h 96 % 0.00 in /  0 mm
07:56 59.5 °F /  15.3 °C 58.1 °F /  14.5 °C 30.00 in /  1015.8 hPa Calm   2.0 mph /  3.2 km/h 95 % 0.00 in /  0 mm
08:01 59.8 °F /  15.4 °C 58.1 °F /  14.5 °C 30.00 in /  1015.8 hPa East 0.2 mph /  0.3 km/h 1.2 mph /  1.9 km/h 94 % 0.00 in /  0 mm
08:06 60.1 °F /  15.6 °C 58.1 °F /  14.5 °C 30.00 in /  1015.8 hPa Calm   1.0 mph /  1.6 km/h 93 % 0.00 in /  0 mm
08:11 60.4 °F /  15.8 °C 58.1 °F /  14.5 °C 30.00 in /  1015.8 hPa Calm   2.0 mph /  3.2 km/h 92 % 0.00 in /  0 mm
08:16 60.7 °F /  15.9 °C 58.4 °F /  14.7 °C 30.00 in /  1015.8 hPa Calm     92 % 0.00 in /  0 mm
08:21 61.1 °F /  16.2 °C 58.4 °F /  14.7 °C 30.00 in /  1015.8 hPa Calm   2.0 mph /  3.2 km/h 91 % 0.00 in /  0 mm
08:26 61.4 °F /  16.3 °C 58.4 °F /  14.7 °C 30.00 in /  1015.8 hPa NNE 1.0 mph /  1.6 km/h 4.0 mph /  6.4 km/h 90 % 0.00 in /  0 mm
08:31 61.6 °F /  16.4 °C 58.0 °F /  14.4 °C 30.00 in /  1015.8 hPa NE 2.0 mph /  3.2 km/h 4.0 mph /  6.4 km/h 88 % 0.00 in /  0 mm
08:36 61.7 °F /  16.5 °C 58.1 °F /  14.5 °C 30.00 in /  1015.8 hPa NE 1.0 mph /  1.6 km/h 4.0 mph /  6.4 km/h 88 % 0.00 in /  0 mm
08:41 61.9 °F /  16.6 °C 58.0 °F /  14.4 °C 30.00 in /  1015.8 hPa NE 1.0 mph /  1.6 km/h 3.0 mph /  4.8 km/h 87 % 0.00 in /  0 mm
08:46 62.0 °F /  16.7 °C 58.1 °F /  14.5 °C 30.00 in /  1015.8 hPa NE 2.0 mph /  3.2 km/h 7.0 mph /  11.3 km/h 87 % 0.00 in /  0 mm
08:51 62.1 °F /  16.7 °C 58.2 °F /  14.6 °C 30.00 in /  1015.8 hPa NE 1.0 mph /  1.6 km/h 5.0 mph /  8 km/h 87 % 0.00 in /  0 mm
08:56 62.1 °F /  16.7 °C 58.2 °F /  14.6 °C 30.00 in /  1015.8 hPa NE 1.1 mph /  1.8 km/h 3.5 mph /  5.6 km/h 87 % 0.00 in /  0 mm
09:01 62.1 °F /  16.7 °C 57.9 °F /  14.4 °C 30.00 in /  1015.8 hPa NE 1.0 mph /  1.6 km/h 5.8 mph /  9.3 km/h 86 % 0.00 in /  0 mm
09:06 62.3 °F /  16.8 °C 58.4 °F /  14.7 °C 30.00 in /  1015.8 hPa NE 3.0 mph /  4.8 km/h 6.0 mph /  9.7 km/h 87 % 0.00 in /  0 mm
09:11 62.4 °F /  16.9 °C 58.4 °F /  14.7 °C 29.99 in /  1015.5 hPa NE 2.0 mph /  3.2 km/h 5.0 mph /  8 km/h 87 % 0.00 in /  0 mm
09:16 62.3 °F /  16.8 °C 57.8 °F /  14.3 °C 29.99 in /  1015.5 hPa ENE 3.0 mph /  4.8 km/h 7.0 mph /  11.3 km/h 85 % 0.00 in /  0 mm
09:21 62.3 °F /  16.8 °C 58.1 °F /  14.5 °C 29.99 in /  1015.5 hPa ENE 2.0 mph /  3.2 km/h 7.0 mph /  11.3 km/h 86 % 0.00 in /  0 mm
09:26 62.4 °F /  16.9 °C 57.8 °F /  14.3 °C 29.99 in /  1015.5 hPa NE 1.0 mph /  1.6 km/h 3.0 mph /  4.8 km/h 85 % 0.00 in /  0 mm
09:31 62.5 °F /  16.9 °C 58.2 °F /  14.6 °C 29.99 in /  1015.5 hPa ENE 1.0 mph /  1.6 km/h 4.0 mph /  6.4 km/h 86 % 0.00 in /  0 mm
09:36 62.7 °F /  17.1 °C 58.5 °F /  14.7 °C 29.99 in /  1015.5 hPa ENE 1.0 mph /  1.6 km/h 4.0 mph /  6.4 km/h 86 % 0.00 in /  0 mm
09:41 63.0 °F /  17.2 °C 58.4 °F /  14.7 °C 30.00 in /  1015.8 hPa ENE 3.0 mph /  4.8 km/h 6.0 mph /  9.7 km/h 85 % 0.00 in /  0 mm
09:46 63.1 °F /  17.3 °C 58.2 °F /  14.6 °C 30.00 in /  1015.8 hPa ENE 3.0 mph /  4.8 km/h 6.0 mph /  9.7 km/h 84 % 0.00 in /  0 mm
09:51 63.4 °F /  17.4 °C 58.2 °F /  14.6 °C 30.00 in /  1015.8 hPa ENE 1.0 mph /  1.6 km/h 4.0 mph /  6.4 km/h 83 % 0.00 in /  0 mm
09:56 64.0 °F /  17.8 °C 59.0 °F /  15 °C 29.99 in /  1015.5 hPa ENE 2.0 mph /  3.2 km/h 8.0 mph /  12.9 km/h 84 % 0.00 in /  0 mm
10:01 65.0 °F /  18.3 °C 59.0 °F /  15 °C 29.99 in /  1015.5 hPa ENE 3.9 mph /  6.3 km/h 6.9 mph /  11.1 km/h 81 % 0.00 in /  0 mm
10:06 65.6 °F /  18.7 °C 59.6 °F /  15.3 °C 29.99 in /  1015.5 hPa NNE 2.4 mph /  3.9 km/h 3.5 mph /  5.6 km/h 81 % 0.00 in /  0 mm
10:11 66.3 °F /  19.1 °C 59.2 °F /  15.1 °C 29.98 in /  1015.1 hPa ENE 2.9 mph /  4.7 km/h 8.1 mph /  13 km/h 78 % 0.00 in /  0 mm
10:16 66.7 °F /  19.3 °C 59.6 °F /  15.3 °C 29.99 in /  1015.5 hPa ENE 2.7 mph /  4.3 km/h 6.9 mph /  11.1 km/h 78 % 0.00 in /  0 mm
10:21 67.2 °F /  19.6 °C 59.4 °F /  15.2 °C 29.99 in /  1015.5 hPa NE 2.3 mph /  3.7 km/h 6.0 mph /  9.7 km/h 76 % 0.00 in /  0 mm
10:26 67.7 °F /  19.8 °C 60.2 °F /  15.7 °C 29.99 in /  1015.5 hPa NE 1.6 mph /  2.6 km/h 3.5 mph /  5.6 km/h 77 % 0.00 in /  0 mm
10:31 68.3 °F /  20.2 °C 60.1 °F /  15.6 °C 29.99 in /  1015.5 hPa ENE 4.2 mph /  6.8 km/h 6.9 mph /  11.1 km/h 75 % 0.00 in /  0 mm
10:36 68.9 °F /  20.5 °C 60.6 °F /  15.9 °C 29.99 in /  1015.5 hPa ENE 3.7 mph /  6 km/h 6.9 mph /  11.1 km/h 75 % 0.00 in /  0 mm
10:41 68.9 °F /  20.5 °C 60.3 °F /  15.7 °C 29.99 in /  1015.5 hPa ENE 4.6 mph /  7.4 km/h 7.0 mph /  11.3 km/h 74 % 0.00 in /  0 mm
10:46 68.7 °F /  20.4 °C 59.7 °F /  15.4 °C 29.99 in /  1015.5 hPa ENE 4.3 mph /  6.9 km/h 7.0 mph /  11.3 km/h 73 % 0.00 in /  0 mm
10:51 68.5 °F /  20.3 °C 60.6 °F /  15.9 °C 29.99 in /  1015.5 hPa NE 1.0 mph /  1.6 km/h 3.0 mph /  4.8 km/h 76 % 0.00 in /  0 mm
10:56 69.0 °F /  20.6 °C 60.0 °F /  15.6 °C 29.99 in /  1015.5 hPa ENE 5.2 mph /  8.4 km/h 6.9 mph /  11.1 km/h 73 % 0.00 in /  0 mm
11:01 68.9 °F /  20.5 °C 60.6 °F /  15.9 °C 29.98 in /  1015.1 hPa ENE 2.5 mph /  4 km/h 4.0 mph /  6.4 km/h 75 % 0.00 in /  0 mm
11:06 69.6 °F /  20.9 °C 60.9 °F /  16.1 °C 29.99 in /  1015.5 hPa ENE 2.6 mph /  4.2 km/h 5.0 mph /  8 km/h 74 % 0.00 in /  0 mm
11:11 69.5 °F /  20.8 °C 60.1 °F /  15.6 °C 29.99 in /  1015.5 hPa ENE 4.6 mph /  7.4 km/h 6.9 mph /  11.1 km/h 72 % 0.00 in /  0 mm
11:16 69.1 °F /  20.6 °C 59.7 °F /  15.4 °C 29.99 in /  1015.5 hPa ENE 3.8 mph /  6.1 km/h 8.1 mph /  13 km/h 72 % 0.00 in /  0 mm
11:21 69.4 °F /  20.8 °C 61.1 °F /  16.2 °C 29.99 in /  1015.5 hPa NE 3.8 mph /  6.1 km/h 8.1 mph /  13 km/h 75 % 0.00 in /  0 mm
11:26 69.4 °F /  20.8 °C 60.4 °F /  15.8 °C 29.99 in /  1015.5 hPa NE 3.3 mph /  5.3 km/h 4.6 mph /  7.4 km/h 73 % 0.00 in /  0 mm
11:31 69.2 °F /  20.7 °C 60.6 °F /  15.9 °C 29.99 in /  1015.5 hPa ENE 2.6 mph /  4.2 km/h 4.0 mph /  6.4 km/h 74 % 0.00 in /  0 mm
11:36 69.3 °F /  20.7 °C 59.9 °F /  15.5 °C 29.99 in /  1015.5 hPa ENE 2.9 mph /  4.7 km/h 7.0 mph /  11.3 km/h 72 % 0.00 in /  0 mm
11:41 69.3 °F /  20.7 °C 60.3 °F /  15.7 °C 29.99 in /  1015.5 hPa ENE 2.1 mph /  3.4 km/h 4.6 mph /  7.4 km/h 73 % 0.00 in /  0 mm
11:46 69.6 °F /  20.9 °C 60.9 °F /  16.1 °C 29.99 in /  1015.5 hPa NE 3.5 mph /  5.6 km/h 5.0 mph /  8 km/h 74 % 0.00 in /  0 mm
11:56 69.3 °F /  20.7 °C 59.5 °F /  15.3 °C 29.99 in /  1015.5 hPa ENE 4.5 mph /  7.2 km/h 4.6 mph /  7.4 km/h 71 % 0.00 in /  0 mm
12:01 68.3 °F /  20.2 °C 58.1 °F /  14.5 °C 29.98 in /  1015.1 hPa ENE 3.0 mph /  4.8 km/h 6.9 mph /  11.1 km/h 70 % 0.00 in /  0 mm
12:05 67.9 °F /  19.9 °C 59.3 °F /  15.2 °C 29.98 in /  1015.1 hPa NE 1.0 mph /  1.6 km/h 2.3 mph /  3.7 km/h 74 % 0.00 in /  0 mm
12:10 67.5 °F /  19.7 °C 59.3 °F /  15.2 °C 29.98 in /  1015.1 hPa ENE 1.5 mph /  2.4 km/h 3.0 mph /  4.8 km/h 75 % 0.00 in /  0 mm
12:15 67.1 °F /  19.5 °C 58.9 °F /  14.9 °C 29.99 in /  1015.5 hPa ENE 1.6 mph /  2.6 km/h 5.0 mph /  8 km/h 75 % 0.00 in /  0 mm
12:20 67.0 °F /  19.4 °C 59.9 °F /  15.5 °C 29.99 in /  1015.5 hPa ENE 3.6 mph /  5.8 km/h 6.9 mph /  11.1 km/h 78 % 0.00 in /  0 mm
12:25 67.1 °F /  19.5 °C 59.3 °F /  15.2 °C 29.98 in /  1015.1 hPa ENE 0.9 mph /  1.4 km/h 2.3 mph /  3.7 km/h 76 % 0.00 in /  0 mm
12:30 67.0 °F /  19.4 °C 59.2 °F /  15.1 °C 29.97 in /  1014.8 hPa ENE 1.5 mph /  2.4 km/h 2.3 mph /  3.7 km/h 76 % 0.00 in /  0 mm
12:35 66.6 °F /  19.2 °C 58.8 °F /  14.9 °C 29.98 in /  1015.1 hPa NE 0.7 mph /  1.1 km/h 4.0 mph /  6.4 km/h 76 % 0.00 in /  0 mm
12:40 66.6 °F /  19.2 °C 59.2 °F /  15.1 °C 29.98 in /  1015.1 hPa ENE 0.6 mph /  1 km/h 3.5 mph /  5.6 km/h 77 % 0.00 in /  0 mm
12:45 66.7 °F /  19.3 °C 58.9 °F /  14.9 °C 29.98 in /  1015.1 hPa ENE 1.7 mph /  2.7 km/h 3.5 mph /  5.6 km/h 76 % 0.00 in /  0 mm
12:50 66.5 °F /  19.2 °C 58.7 °F /  14.8 °C 29.98 in /  1015.1 hPa ENE 0.5 mph /  0.8 km/h 2.3 mph /  3.7 km/h 76 % 0.00 in /  0 mm
12:55 66.7 °F /  19.3 °C 59.3 °F /  15.2 °C 29.97 in /  1014.8 hPa NE 0.6 mph /  1 km/h 2.3 mph /  3.7 km/h 77 % 0.00 in /  0 mm
13:00 67.1 °F /  19.5 °C 58.9 °F /  14.9 °C 29.98 in /  1015.1 hPa ENE 0.4 mph /  0.6 km/h 2.3 mph /  3.7 km/h 75 % 0.00 in /  0 mm
13:05 67.6 °F /  19.8 °C 60.1 °F /  15.6 °C 29.98 in /  1015.1 hPa NE 2.2 mph /  3.5 km/h 4.6 mph /  7.4 km/h 77 % 0.00 in /  0 mm
13:11 67.9 °F /  19.9 °C 59.7 °F /  15.4 °C 29.97 in /  1014.8 hPa ENE 3.0 mph /  4.8 km/h 7.0 mph /  11.3 km/h 75 % 0.00 in /  0 mm
13:15 68.1 °F /  20.1 °C 60.2 °F /  15.7 °C 29.97 in /  1014.8 hPa ENE 1.0 mph /  1.6 km/h 5.0 mph /  8 km/h 76 % 0.00 in /  0 mm
13:20 68.3 °F /  20.2 °C 60.5 °F /  15.8 °C 29.97 in /  1014.8 hPa ENE 2.0 mph /  3.2 km/h 5.0 mph /  8 km/h 76 % 0.00 in /  0 mm
13:25 68.4 °F /  20.2 °C 59.4 °F /  15.2 °C 29.97 in /  1014.8 hPa ENE 3.0 mph /  4.8 km/h 5.0 mph /  8 km/h 73 % 0.00 in /  0 mm
13:31 67.9 °F /  19.9 °C 58.6 °F /  14.8 °C 29.97 in /  1014.8 hPa ENE 3.0 mph /  4.8 km/h 7.0 mph /  11.3 km/h 72 % 0.00 in /  0 mm
13:35 67.4 °F /  19.7 °C 59.2 °F /  15.1 °C 29.96 in /  1014.4 hPa ENE 2.0 mph /  3.2 km/h 7.0 mph /  11.3 km/h 75 % 0.00 in /  0 mm
13:40 67.2 °F /  19.6 °C 59.4 °F /  15.2 °C 29.96 in /  1014.4 hPa ENE 2.0 mph /  3.2 km/h 3.0 mph /  4.8 km/h 76 % 0.00 in /  0 mm
13:46 66.8 °F /  19.3 °C 59.0 °F /  15 °C 29.96 in /  1014.4 hPa NE 2.0 mph /  3.2 km/h 8.0 mph /  12.9 km/h 76 % 0.00 in /  0 mm
13:50 66.4 °F /  19.1 °C 58.9 °F /  14.9 °C 29.96 in /  1014.4 hPa NE 2.0 mph /  3.2 km/h 5.0 mph /  8 km/h 77 % 0.00 in /  0 mm
13:55 65.9 °F /  18.8 °C 58.8 °F /  14.9 °C 29.95 in /  1014.1 hPa ENE 3.0 mph /  4.8 km/h 7.0 mph /  11.3 km/h 78 % 0.00 in /  0 mm
14:00 65.6 °F /  18.7 °C 59.3 °F /  15.2 °C 29.95 in /  1014.1 hPa NE 2.6 mph /  4.2 km/h 3.5 mph /  5.6 km/h 80 % 0.00 in /  0 mm
14:05 65.5 °F /  18.6 °C 59.5 °F /  15.3 °C 29.95 in /  1014.1 hPa ENE 1.2 mph /  1.9 km/h 2.3 mph /  3.7 km/h 81 % 0.00 in /  0 mm
14:10 65.6 °F /  18.7 °C 59.6 °F /  15.3 °C 29.95 in /  1014.1 hPa NE 1.3 mph /  2.1 km/h 4.6 mph /  7.4 km/h 81 % 0.00 in /  0 mm
14:15 65.7 °F /  18.7 °C 59.0 °F /  15 °C 29.95 in /  1014.1 hPa NE 1.8 mph /  2.9 km/h 3.5 mph /  5.6 km/h 79 % 0.00 in /  0 mm
14:20 65.7 °F /  18.7 °C 59.4 °F /  15.2 °C 29.95 in /  1014.1 hPa NE 1.0 mph /  1.6 km/h 3.0 mph /  4.8 km/h 80 % 0.00 in /  0 mm
14:25 65.6 °F /  18.7 °C 59.3 °F /  15.2 °C 29.95 in /  1014.1 hPa NE 3.0 mph /  4.8 km/h 7.0 mph /  11.3 km/h 80 % 0.00 in /  0 mm
14:30 65.5 °F /  18.6 °C 59.2 °F /  15.1 °C 29.94 in /  1013.8 hPa ENE 1.0 mph /  1.6 km/h 2.0 mph /  3.2 km/h 80 % 0.00 in /  0 mm
14:35 65.5 °F /  18.6 °C 59.1 °F /  15.1 °C 29.94 in /  1013.8 hPa ENE 1.0 mph /  1.6 km/h 4.0 mph /  6.4 km/h 80 % 0.00 in /  0 mm
14:40 65.4 °F /  18.6 °C 59.4 °F /  15.2 °C 29.94 in /  1013.8 hPa ENE 1.0 mph /  1.6 km/h 3.0 mph /  4.8 km/h 81 % 0.00 in /  0 mm
14:46 65.2 °F /  18.4 °C 59.3 °F /  15.2 °C 29.94 in /  1013.8 hPa ENE 1.0 mph /  1.6 km/h 5.0 mph /  8 km/h 81 % 0.00 in /  0 mm
14:51 65.1 °F /  18.4 °C 59.2 °F /  15.1 °C 29.94 in /  1013.8 hPa Calm   2.0 mph /  3.2 km/h 81 % 0.00 in /  0 mm
14:56 65.2 °F /  18.4 °C 59.6 °F /  15.3 °C 29.94 in /  1013.8 hPa Calm   1.0 mph /  1.6 km/h 82 % 0.00 in /  0 mm
15:01 65.2 °F /  18.4 °C 58.9 °F /  14.9 °C 29.94 in /  1013.8 hPa Calm   1.2 mph /  1.9 km/h 80 % 0.00 in /  0 mm
15:06 65.2 °F /  18.4 °C 58.9 °F /  14.9 °C 29.93 in /  1013.4 hPa ENE 0.7 mph /  1.1 km/h 3.5 mph /  5.6 km/h 80 % 0.00 in /  0 mm
15:11 65.0 °F /  18.3 °C 58.3 °F /  14.6 °C 29.93 in /  1013.4 hPa NE 0.5 mph /  0.8 km/h 2.3 mph /  3.7 km/h 79 % 0.00 in /  0 mm
15:16 64.9 °F /  18.3 °C 58.2 °F /  14.6 °C 29.93 in /  1013.4 hPa NE 0.2 mph /  0.3 km/h 3.5 mph /  5.6 km/h 79 % 0.00 in /  0 mm
15:21 64.9 °F /  18.3 °C 58.6 °F /  14.8 °C 29.93 in /  1013.4 hPa NE 0.1 mph /  0.2 km/h 1.2 mph /  1.9 km/h 80 % 0.00 in /  0 mm
15:26 64.9 °F /  18.3 °C 58.2 °F /  14.6 °C 29.93 in /  1013.4 hPa NE 0.7 mph /  1.1 km/h 1.2 mph /  1.9 km/h 79 % 0.00 in /  0 mm
15:31 64.9 °F /  18.3 °C 58.2 °F /  14.6 °C 29.93 in /  1013.4 hPa NE 0.5 mph /  0.8 km/h 1.2 mph /  1.9 km/h 79 % 0.00 in /  0 mm
15:36 64.9 °F /  18.3 °C 58.2 °F /  14.6 °C 29.93 in /  1013.4 hPa Calm     79 % 0.00 in /  0 mm
15:41 65.0 °F /  18.3 °C 57.6 °F /  14.2 °C 29.92 in /  1013.1 hPa Calm     77 % 0.00 in /  0 mm
15:46 65.1 °F /  18.4 °C 57.7 °F /  14.3 °C 29.92 in /  1013.1 hPa Calm     77 % 0.00 in /  0 mm
15:51 65.1 °F /  18.4 °C 55.8 °F /  13.2 °C 29.92 in /  1013.1 hPa SSE 1.1 mph /  1.8 km/h 4.0 mph /  6.4 km/h 72 % 0.00 in /  0 mm
15:56 65.1 °F /  18.4 °C 52.6 °F /  11.4 °C 29.92 in /  1013.1 hPa SSE 1.8 mph /  2.9 km/h 4.0 mph /  6.4 km/h 64 % 0.00 in /  0 mm
16:01 65.2 °F /  18.4 °C 53.1 °F /  11.7 °C 29.92 in /  1013.1 hPa SSE 2.1 mph /  3.4 km/h 4.6 mph /  7.4 km/h 65 % 0.00 in /  0 mm
16:06 65.3 °F /  18.5 °C 51.5 °F /  10.8 °C 29.92 in /  1013.1 hPa SSE 1.0 mph /  1.6 km/h 3.5 mph /  5.6 km/h 61 % 0.00 in /  0 mm
16:11 65.3 °F /  18.5 °C 51.9 °F /  11.1 °C 29.92 in /  1013.1 hPa Calm   3.5 mph /  5.6 km/h 62 % 0.00 in /  0 mm
16:16 65.3 °F /  18.5 °C 51.1 °F /  10.6 °C 29.92 in /  1013.1 hPa SE 5.4 mph /  8.7 km/h 8.1 mph /  13 km/h 60 % 0.00 in /  0 mm
16:20 65.2 °F /  18.4 °C 51.0 °F /  10.6 °C 29.92 in /  1013.1 hPa SE 1.2 mph /  1.9 km/h 3.5 mph /  5.6 km/h 60 % 0.00 in /  0 mm
16:25 65.1 °F /  18.4 °C 50.9 °F /  10.5 °C 29.92 in /  1013.1 hPa SSE 2.0 mph /  3.2 km/h 3.5 mph /  5.6 km/h 60 % 0.00 in /  0 mm
16:30 65.0 °F /  18.3 °C 51.2 °F /  10.7 °C 29.92 in /  1013.1 hPa SSE 3.6 mph /  5.8 km/h 6.9 mph /  11.1 km/h 61 % 0.00 in /  0 mm
16:35 64.8 °F /  18.2 °C 51.5 °F /  10.8 °C 29.92 in /  1013.1 hPa SE 1.4 mph /  2.3 km/h 4.6 mph /  7.4 km/h 62 % 0.00 in /  0 mm
16:40 64.7 °F /  18.2 °C 51.4 °F /  10.8 °C 29.92 in /  1013.1 hPa SE 0.9 mph /  1.4 km/h 3.5 mph /  5.6 km/h 62 % 0.00 in /  0 mm
16:45 64.7 °F /  18.2 °C 52.2 °F /  11.2 °C 29.91 in /  1012.8 hPa SE 0.1 mph /  0.2 km/h 1.2 mph /  1.9 km/h 64 % 0.00 in /  0 mm
16:50 64.7 °F /  18.2 °C 52.7 °F /  11.5 °C 29.91 in /  1012.8 hPa SE 0.1 mph /  0.2 km/h 1.2 mph /  1.9 km/h 65 % 0.00 in /  0 mm
16:53 64.6 °F /  18.1 °C 51.7 °F /  10.9 °C 29.91 in /  1012.8 hPa SE 1.0 mph /  1.6 km/h 2.3 mph /  3.7 km/h 63 % 0.00 in /  0 mm
16:58 64.5 °F /  18.1 °C 51.6 °F /  10.9 °C 29.90 in /  1012.4 hPa Calm   1.2 mph /  1.9 km/h 63 % 0.00 in /  0 mm
17:03 64.3 °F /  17.9 °C 51.4 °F /  10.8 °C 29.90 in /  1012.4 hPa Calm   2.3 mph /  3.7 km/h 63 % 0.00 in /  0 mm
17:08 64.3 °F /  17.9 °C 52.3 °F /  11.3 °C 29.90 in /  1012.4 hPa Calm   1.2 mph /  1.9 km/h 65 % 0.00 in /  0 mm
17:13 64.1 °F /  17.8 °C 50.8 °F /  10.4 °C 29.90 in /  1012.4 hPa SE 0.2 mph /  0.3 km/h 1.2 mph /  1.9 km/h 62 % 0.00 in /  0 mm
17:18 64.0 °F /  17.8 °C 50.7 °F /  10.4 °C 29.91 in /  1012.8 hPa SE 0.1 mph /  0.2 km/h 1.2 mph /  1.9 km/h 62 % 0.00 in /  0 mm
17:21 64.0 °F /  17.8 °C 51.6 °F /  10.9 °C 29.91 in /  1012.8 hPa Calm   1.2 mph /  1.9 km/h 64 % 0.00 in /  0 mm
17:26 63.9 °F /  17.7 °C 50.2 °F /  10.1 °C 29.90 in /  1012.4 hPa ESE 1.9 mph /  3.1 km/h 4.6 mph /  7.4 km/h 61 % 0.00 in /  0 mm
17:31 63.7 °F /  17.6 °C 50.0 °F /  10 °C 29.90 in /  1012.4 hPa SSW 0.2 mph /  0.3 km/h 1.2 mph /  1.9 km/h 61 % 0.00 in /  0 mm
17:36 63.6 °F /  17.6 °C 50.3 °F /  10.2 °C 29.89 in /  1012.1 hPa Calm     62 % 0.00 in /  0 mm
17:41 63.6 °F /  17.6 °C 50.3 °F /  10.2 °C 29.89 in /  1012.1 hPa Calm   2.3 mph /  3.7 km/h 62 % 0.00 in /  0 mm
17:46 63.5 °F /  17.5 °C 50.7 °F /  10.4 °C 29.88 in /  1011.7 hPa Calm   2.3 mph /  3.7 km/h 63 % 0.00 in /  0 mm
17:51 63.3 °F /  17.4 °C 51.3 °F /  10.7 °C 29.88 in /  1011.7 hPa Calm     65 % 0.00 in /  0 mm
17:56 63.1 °F /  17.3 °C 50.7 °F /  10.4 °C 29.88 in /  1011.7 hPa Calm     64 % 0.00 in /  0 mm
18:01 63.0 °F /  17.2 °C 50.2 °F /  10.1 °C 29.87 in /  1011.4 hPa SSW 0.1 mph /  0.2 km/h 1.2 mph /  1.9 km/h 63 % 0.00 in /  0 mm
18:06 62.9 °F /  17.2 °C 50.5 °F /  10.3 °C 29.87 in /  1011.4 hPa Calm     64 % 0.00 in /  0 mm
18:11 62.7 °F /  17.1 °C 51.2 °F /  10.7 °C 29.87 in /  1011.4 hPa Calm     66 % 0.00 in /  0 mm
18:16 62.5 °F /  16.9 °C 51.0 °F /  10.6 °C 29.87 in /  1011.4 hPa Calm     66 % 0.00 in /  0 mm
18:21 62.3 °F /  16.8 °C 50.4 °F /  10.2 °C 29.87 in /  1011.4 hPa Calm   1.2 mph /  1.9 km/h 65 % 0.00 in /  0 mm
18:26 62.2 °F /  16.8 °C 51.1 °F /  10.6 °C 29.87 in /  1011.4 hPa Calm   1.2 mph /  1.9 km/h 67 % 0.00 in /  0 mm
18:36 61.9 °F /  16.6 °C 50.4 °F /  10.2 °C 29.87 in /  1011.4 hPa Calm   1.0 mph /  1.6 km/h 66 % 0.00 in /  0 mm
18:41 61.7 °F /  16.5 °C 49.4 °F /  9.7 °C 29.86 in /  1011.1 hPa Calm   1.2 mph /  1.9 km/h 64 % 0.00 in /  0 mm
18:46 61.6 °F /  16.4 °C 48.9 °F /  9.4 °C 29.86 in /  1011.1 hPa SSW 0.2 mph /  0.3 km/h 1.2 mph /  1.9 km/h 63 % 0.00 in /  0 mm
18:51 61.4 °F /  16.3 °C 49.5 °F /  9.7 °C 29.86 in /  1011.1 hPa SSW 0.2 mph /  0.3 km/h 1.2 mph /  1.9 km/h 65 % 0.00 in /  0 mm
18:56 61.3 °F /  16.3 °C 48.6 °F /  9.2 °C 29.86 in /  1011.1 hPa Calm     63 % 0.00 in /  0 mm
19:01 61.3 °F /  16.3 °C 48.2 °F /  9 °C 29.85 in /  1010.7 hPa Calm     62 % 0.00 in /  0 mm
19:06 61.2 °F /  16.2 °C 48.9 °F /  9.4 °C 29.85 in /  1010.7 hPa Calm     64 % 0.00 in /  0 mm
19:11 61.0 °F /  16.1 °C 47.9 °F /  8.8 °C 29.85 in /  1010.7 hPa SSW 0.1 mph /  0.2 km/h 1.2 mph /  1.9 km/h 62 % 0.00 in /  0 mm
19:16 60.9 °F /  16.1 °C 48.6 °F /  9.2 °C 29.85 in /  1010.7 hPa SSW 0.1 mph /  0.2 km/h 1.0 mph /  1.6 km/h 64 % 0.00 in /  0 mm
19:21 60.7 °F /  15.9 °C 48.9 °F /  9.4 °C 29.85 in /  1010.7 hPa SSW 0.4 mph /  0.6 km/h 1.2 mph /  1.9 km/h 65 % 0.00 in /  0 mm
19:27 60.5 °F /  15.8 °C 48.7 °F /  9.3 °C 29.85 in /  1010.7 hPa SSW 0.2 mph /  0.3 km/h 1.2 mph /  1.9 km/h 65 % 0.00 in /  0 mm
19:32 60.3 °F /  15.7 °C 48.9 °F /  9.4 °C 29.84 in /  1010.4 hPa SSW 0.3 mph /  0.5 km/h 1.2 mph /  1.9 km/h 66 % 0.00 in /  0 mm
19:37 60.2 °F /  15.7 °C 49.2 °F /  9.6 °C 29.84 in /  1010.4 hPa SSW 0.6 mph /  1 km/h 2.3 mph /  3.7 km/h 67 % 0.00 in /  0 mm
19:42 60.0 °F /  15.6 °C 49.0 °F /  9.4 °C 29.83 in /  1010 hPa SSW 0.1 mph /  0.2 km/h 1.2 mph /  1.9 km/h 67 % 0.00 in /  0 mm
19:52 59.9 °F /  15.5 °C 49.3 °F /  9.6 °C 29.83 in /  1010 hPa SSW 0.1 mph /  0.2 km/h 1.2 mph /  1.9 km/h 68 % 0.00 in /  0 mm
19:57 59.8 °F /  15.4 °C 49.2 °F /  9.6 °C 29.82 in /  1009.7 hPa SSW 0.4 mph /  0.6 km/h 1.2 mph /  1.9 km/h 68 % 0.00 in /  0 mm
20:02 59.7 °F /  15.4 °C 49.1 °F /  9.5 °C 29.82 in /  1009.7 hPa SSW 0.8 mph /  1.3 km/h 2.3 mph /  3.7 km/h 68 % 0.00 in /  0 mm
20:07 59.6 °F /  15.3 °C 48.6 °F /  9.2 °C 29.82 in /  1009.7 hPa SSW 0.7 mph /  1.1 km/h 2.3 mph /  3.7 km/h 67 % 0.00 in /  0 mm
20:12 59.5 °F /  15.3 °C 47.7 °F /  8.7 °C 29.82 in /  1009.7 hPa SSW 0.2 mph /  0.3 km/h   65 % 0.00 in /  0 mm
20:17 59.5 °F /  15.3 °C 48.1 °F /  8.9 °C 29.82 in /  1009.7 hPa Calm     66 % 0.00 in /  0 mm
20:22 59.4 °F /  15.2 °C 48.0 °F /  8.9 °C 29.82 in /  1009.7 hPa Calm     66 % 0.00 in /  0 mm
20:27 59.3 °F /  15.2 °C 47.1 °F /  8.4 °C 29.82 in /  1009.7 hPa Calm     64 % 0.00 in /  0 mm
20:32 59.3 °F /  15.2 °C 47.5 °F /  8.6 °C 29.81 in /  1009.4 hPa Calm     65 % 0.00 in /  0 mm
20:37 59.2 °F /  15.1 °C 47.4 °F /  8.6 °C 29.81 in /  1009.4 hPa Calm     65 % 0.00 in /  0 mm
20:42 59.0 °F /  15 °C 47.7 °F /  8.7 °C 29.81 in /  1009.4 hPa Calm   1.2 mph /  1.9 km/h 66 % 0.00 in /  0 mm
20:47 58.8 °F /  14.9 °C 47.5 °F /  8.6 °C 29.81 in /  1009.4 hPa Calm     66 % 0.00 in /  0 mm
20:52 58.7 °F /  14.8 °C 47.4 °F /  8.6 °C 29.81 in /  1009.4 hPa Calm     66 % 0.00 in /  0 mm
20:57 58.6 °F /  14.8 °C 47.3 °F /  8.5 °C 29.81 in /  1009.4 hPa NE 0.1 mph /  0.2 km/h 1.2 mph /  1.9 km/h 66 % 0.00 in /  0 mm
21:02 58.5 °F /  14.7 °C 47.2 °F /  8.4 °C 29.81 in /  1009.4 hPa Calm     66 % 0.00 in /  0 mm
21:07 58.3 °F /  14.6 °C 47.0 °F /  8.3 °C 29.81 in /  1009.4 hPa Calm     66 % 0.00 in /  0 mm
21:12 58.1 °F /  14.5 °C 46.4 °F /  8 °C 29.81 in /  1009.4 hPa Calm     65 % 0.00 in /  0 mm
21:17 57.8 °F /  14.3 °C 46.1 °F /  7.8 °C 29.80 in /  1009 hPa Calm     65 % 0.00 in /  0 mm
21:22 57.6 °F /  14.2 °C 46.3 °F /  7.9 °C 29.80 in /  1009 hPa Calm     66 % 0.00 in /  0 mm
21:27 57.4 °F /  14.1 °C 46.1 °F /  7.8 °C 29.80 in /  1009 hPa Calm     66 % 0.00 in /  0 mm
21:32 57.2 °F /  14 °C 46.3 °F /  7.9 °C 29.80 in /  1009 hPa Calm     67 % 0.00 in /  0 mm
21:37 57.0 °F /  13.9 °C 46.1 °F /  7.8 °C 29.80 in /  1009 hPa Calm     67 % 0.00 in /  0 mm
21:42 56.7 °F /  13.7 °C 46.3 °F /  7.9 °C 29.80 in /  1009 hPa Calm     68 % 0.00 in /  0 mm
21:47 56.4 °F /  13.6 °C 47.1 °F /  8.4 °C 29.80 in /  1009 hPa Calm     71 % 0.00 in /  0 mm
21:52 56.3 °F /  13.5 °C 47.4 °F /  8.6 °C 29.80 in /  1009 hPa Calm     72 % 0.00 in /  0 mm
21:57 56.2 °F /  13.4 °C 47.7 °F /  8.7 °C 29.80 in /  1009 hPa Calm     73 % 0.00 in /  0 mm
22:02 56.1 °F /  13.4 °C 47.9 °F /  8.8 °C 29.80 in /  1009 hPa Calm     74 % 0.00 in /  0 mm
22:07 56.0 °F /  13.3 °C 47.8 °F /  8.8 °C 29.80 in /  1009 hPa Calm     74 % 0.00 in /  0 mm
22:12 56.0 °F /  13.3 °C 48.2 °F /  9 °C 29.80 in /  1009 hPa Calm     75 % 0.00 in /  0 mm
22:17 55.9 °F /  13.3 °C 48.4 °F /  9.1 °C 29.80 in /  1009 hPa Calm     76 % 0.00 in /  0 mm
22:22 55.9 °F /  13.3 °C 48.8 °F /  9.3 °C 29.80 in /  1009 hPa NE 0.1 mph /  0.2 km/h 1.2 mph /  1.9 km/h 77 % 0.00 in /  0 mm
22:27 55.9 °F /  13.3 °C 50.2 °F /  10.1 °C 29.79 in /  1008.7 hPa Calm   2.3 mph /  3.7 km/h 81 % 0.00 in /  0 mm
22:33 56.0 °F /  13.3 °C 50.6 °F /  10.3 °C 29.79 in /  1008.7 hPa Calm     82 % 0.00 in /  0 mm
22:38 56.0 °F /  13.3 °C 50.9 °F /  10.5 °C 29.79 in /  1008.7 hPa ENE 0.4 mph /  0.6 km/h 2.3 mph /  3.7 km/h 83 % 0.00 in /  0 mm
22:43 56.2 °F /  13.4 °C 51.7 °F /  10.9 °C 29.79 in /  1008.7 hPa ENE 0.3 mph /  0.5 km/h 1.2 mph /  1.9 km/h 85 % 0.00 in /  0 mm
22:48 56.4 °F /  13.6 °C 52.3 °F /  11.3 °C 29.79 in /  1008.7 hPa Calm     86 % 0.00 in /  0 mm
22:53 56.4 °F /  13.6 °C 52.3 °F /  11.3 °C 29.79 in /  1008.7 hPa ENE 1.0 mph /  1.6 km/h 2.3 mph /  3.7 km/h 86 % 0.00 in /  0 mm
22:58 56.6 °F /  13.7 °C 52.5 °F /  11.4 °C 29.79 in /  1008.7 hPa ENE 0.7 mph /  1.1 km/h 3.5 mph /  5.6 km/h 86 % 0.00 in /  0 mm
23:03 56.6 °F /  13.7 °C 52.5 °F /  11.4 °C 29.79 in /  1008.7 hPa ENE 0.5 mph /  0.8 km/h 2.3 mph /  3.7 km/h 86 % 0.00 in /  0 mm
23:08 56.6 °F /  13.7 °C 52.5 °F /  11.4 °C 29.79 in /  1008.7 hPa ENE 0.1 mph /  0.2 km/h 1.2 mph /  1.9 km/h 86 % 0.00 in /  0 mm
23:13 56.7 °F /  13.7 °C 52.6 °F /  11.4 °C 29.79 in /  1008.7 hPa NNE 0.9 mph /  1.4 km/h 3.0 mph /  4.8 km/h 86 % 0.00 in /  0 mm
23:18 56.8 °F /  13.8 °C 52.7 °F /  11.5 °C 29.79 in /  1008.7 hPa NNE 0.3 mph /  0.5 km/h 1.2 mph /  1.9 km/h 86 % 0.00 in /  0 mm
23:23 56.8 °F /  13.8 °C 52.7 °F /  11.5 °C 29.79 in /  1008.7 hPa Calm   2.3 mph /  3.7 km/h 86 % 0.00 in /  0 mm
23:28 56.9 °F /  13.8 °C 52.8 °F /  11.6 °C 29.78 in /  1008.4 hPa North 1.0 mph /  1.6 km/h 3.5 mph /  5.6 km/h 86 % 0.00 in /  0 mm
23:33 56.9 °F /  13.8 °C 52.8 °F /  11.6 °C 29.79 in /  1008.7 hPa North 1.1 mph /  1.8 km/h 3.5 mph /  5.6 km/h 86 % 0.00 in /  0 mm
23:43 56.9 °F /  13.8 °C 53.1 °F /  11.7 °C 29.78 in /  1008.4 hPa North 0.6 mph /  1 km/h 2.0 mph /  3.2 km/h 87 % 0.00 in /  0 mm
23:48 57.0 °F /  13.9 °C 53.2 °F /  11.8 °C 29.78 in /  1008.4 hPa Calm   1.2 mph /  1.9 km/h 87 % 0.00 in /  0 mm
23:53 57.0 °F /  13.9 °C 53.2 °F /  11.8 °C 29.78 in /  1008.4 hPa North 0.4 mph /  0.6 km/h 1.2 mph /  1.9 km/h 87 % 0.00 in /  0 mm
23:58 57.0 °F /  13.9 °C 53.5 °F /  11.9 °C 29.77 in /  1008 hPa NE 3.5 mph /  5.6 km/h 4.6 mph /  7.4 km/h 88 % 0.00 in /  0 mm
Crab Meadow Weather
Compliments of Weather Underground - 3 mb

Script developed by  Jim McMurry - jmcmurry@mwt.net Adapted for the template by  Wim van der Kuil - Leuven-Template.eu

Clouds: Partly sunny and partly cloudy indicate the same amount of cloud coverage - about 50 percent. Partly sunny is used during the daytime, and partly cloudy is used at night when there is no sun.